sensor_id;sensor_type;location;lat;lon;timestamp;temperature;humidity
48836;DHT22;62581;47.342;7.908;2022-12-20T00:01:06;2.80;99.90
48836;DHT22;62581;47.342;7.908;2022-12-20T00:03:33;2.80;99.90
48836;DHT22;62581;47.342;7.908;2022-12-20T00:06:00;2.80;99.90
48836;DHT22;62581;47.342;7.908;2022-12-20T00:08:27;2.80;99.90
48836;DHT22;62581;47.342;7.908;2022-12-20T00:10:54;2.80;99.90
48836;DHT22;62581;47.342;7.908;2022-12-20T00:13:21;2.80;99.90
48836;DHT22;62581;47.342;7.908;2022-12-20T00:15:49;2.90;99.90
48836;DHT22;62581;47.342;7.908;2022-12-20T00:18:16;2.90;99.90
48836;DHT22;62581;47.342;7.908;2022-12-20T00:20:44;3.00;99.90
48836;DHT22;62581;47.342;7.908;2022-12-20T00:23:11;3.00;99.90
48836;DHT22;62581;47.342;7.908;2022-12-20T00:25:37;3.00;99.90
48836;DHT22;62581;47.342;7.908;2022-12-20T00:28:04;3.10;99.90
48836;DHT22;62581;47.342;7.908;2022-12-20T00:30:31;3.10;99.90
48836;DHT22;62581;47.342;7.908;2022-12-20T00:33:00;3.10;99.90
48836;DHT22;62581;47.342;7.908;2022-12-20T00:35:27;3.10;99.90
48836;DHT22;62581;47.342;7.908;2022-12-20T00:37:54;3.00;99.90
48836;DHT22;62581;47.342;7.908;2022-12-20T00:40:21;3.00;99.90
48836;DHT22;62581;47.342;7.908;2022-12-20T00:42:47;2.90;99.90
48836;DHT22;62581;47.342;7.908;2022-12-20T00:45:14;3.00;99.90
48836;DHT22;62581;47.342;7.908;2022-12-20T00:47:41;2.90;99.90
48836;DHT22;62581;47.342;7.908;2022-12-20T00:50:10;2.90;99.90
48836;DHT22;62581;47.342;7.908;2022-12-20T00:52:38;2.80;99.90
48836;DHT22;62581;47.342;7.908;2022-12-20T00:55:05;2.80;99.90
48836;DHT22;62581;47.342;7.908;2022-12-20T00:57:32;2.80;99.90
48836;DHT22;62581;47.342;7.908;2022-12-20T00:59:59;2.80;99.90
48836;DHT22;62581;47.342;7.908;2022-12-20T01:02:26;2.70;99.90
48836;DHT22;62581;47.342;7.908;2022-12-20T01:04:53;2.80;99.90
48836;DHT22;62581;47.342;7.908;2022-12-20T01:07:21;2.80;99.90
48836;DHT22;62581;47.342;7.908;2022-12-20T01:09:49;2.80;99.90
48836;DHT22;62581;47.342;7.908;2022-12-20T01:12:16;2.80;99.90
48836;DHT22;62581;47.342;7.908;2022-12-20T01:14:43;2.80;99.90
48836;DHT22;62581;47.342;7.908;2022-12-20T01:17:10;2.80;99.90
48836;DHT22;62581;47.342;7.908;2022-12-20T01:19:37;2.90;99.90
48836;DHT22;62581;47.342;7.908;2022-12-20T01:22:05;2.90;99.90
48836;DHT22;62581;47.342;7.908;2022-12-20T01:24:33;2.80;99.90
48836;DHT22;62581;47.342;7.908;2022-12-20T01:27:00;2.80;99.90
48836;DHT22;62581;47.342;7.908;2022-12-20T01:29:27;2.90;99.90
48836;DHT22;62581;47.342;7.908;2022-12-20T01:31:55;2.90;99.90
48836;DHT22;62581;47.342;7.908;2022-12-20T01:34:22;2.90;99.90
48836;DHT22;62581;47.342;7.908;2022-12-20T01:36:49;2.90;99.90
48836;DHT22;62581;47.342;7.908;2022-12-20T01:39:16;2.90;99.90
48836;DHT22;62581;47.342;7.908;2022-12-20T01:41:45;2.90;99.90
48836;DHT22;62581;47.342;7.908;2022-12-20T01:44:50;2.90;99.90
48836;DHT22;62581;47.342;7.908;2022-12-20T01:47:18;3.00;99.90
48836;DHT22;62581;47.342;7.908;2022-12-20T01:49:47;3.00;99.90
48836;DHT22;62581;47.342;7.908;2022-12-20T01:52:18;3.00;99.90
48836;DHT22;62581;47.342;7.908;2022-12-20T01:54:48;2.90;99.90
48836;DHT22;62581;47.342;7.908;2022-12-20T01:57:21;2.90;99.90
48836;DHT22;62581;47.342;7.908;2022-12-20T01:59:51;2.90;99.90
48836;DHT22;62581;47.342;7.908;2022-12-20T02:02:19;2.90;99.90
48836;DHT22;62581;47.342;7.908;2022-12-20T02:04:46;2.90;99.90
48836;DHT22;62581;47.342;7.908;2022-12-20T02:07:18;2.90;99.90
48836;DHT22;62581;47.342;7.908;2022-12-20T02:09:46;3.00;99.90
48836;DHT22;62581;47.342;7.908;2022-12-20T02:12:14;2.90;99.90
48836;DHT22;62581;47.342;7.908;2022-12-20T02:14:54;2.90;99.90
48836;DHT22;62581;47.342;7.908;2022-12-20T02:17:33;2.80;99.90
48836;DHT22;62581;47.342;7.908;2022-12-20T02:23:40;2.80;99.90
48836;DHT22;62581;47.342;7.908;2022-12-20T02:26:21;2.80;99.90
48836;DHT22;62581;47.342;7.908;2022-12-20T02:29:06;2.70;99.90
48836;DHT22;62581;47.342;7.908;2022-12-20T02:31:42;2.80;99.90
48836;DHT22;62581;47.342;7.908;2022-12-20T02:34:13;2.80;99.90
48836;DHT22;62581;47.342;7.908;2022-12-20T02:36:41;2.90;99.90
48836;DHT22;62581;47.342;7.908;2022-12-20T02:39:09;2.90;99.90
48836;DHT22;62581;47.342;7.908;2022-12-20T02:41:44;2.90;99.90
48836;DHT22;62581;47.342;7.908;2022-12-20T02:44:14;2.90;99.90
48836;DHT22;62581;47.342;7.908;2022-12-20T02:47:02;3.00;99.90
48836;DHT22;62581;47.342;7.908;2022-12-20T02:49:34;3.00;99.90
48836;DHT22;62581;47.342;7.908;2022-12-20T02:52:04;3.00;99.90
48836;DHT22;62581;47.342;7.908;2022-12-20T02:54:33;3.00;99.90
48836;DHT22;62581;47.342;7.908;2022-12-20T02:57:05;3.00;99.90
48836;DHT22;62581;47.342;7.908;2022-12-20T02:59:36;3.00;99.90
48836;DHT22;62581;47.342;7.908;2022-12-20T03:02:07;3.00;99.90
48836;DHT22;62581;47.342;7.908;2022-12-20T03:04:37;2.90;99.90
48836;DHT22;62581;47.342;7.908;2022-12-20T03:07:07;2.90;99.90
48836;DHT22;62581;47.342;7.908;2022-12-20T03:09:37;2.90;99.90
48836;DHT22;62581;47.342;7.908;2022-12-20T03:12:04;2.90;99.90
48836;DHT22;62581;47.342;7.908;2022-12-20T03:14:31;2.90;99.90
48836;DHT22;62581;47.342;7.908;2022-12-20T03:16:58;2.90;99.90
48836;DHT22;62581;47.342;7.908;2022-12-20T03:19:27;2.90;99.90
48836;DHT22;62581;47.342;7.908;2022-12-20T03:21:54;2.90;99.90
48836;DHT22;62581;47.342;7.908;2022-12-20T03:24:21;2.90;99.90
48836;DHT22;62581;47.342;7.908;2022-12-20T03:26:48;2.90;99.90
48836;DHT22;62581;47.342;7.908;2022-12-20T03:29:15;2.90;99.90
48836;DHT22;62581;47.342;7.908;2022-12-20T03:31:41;2.90;99.90
48836;DHT22;62581;47.342;7.908;2022-12-20T03:34:08;2.90;99.90
48836;DHT22;62581;47.342;7.908;2022-12-20T03:36:37;2.90;99.90
48836;DHT22;62581;47.342;7.908;2022-12-20T03:39:04;2.80;99.90
48836;DHT22;62581;47.342;7.908;2022-12-20T03:41:31;2.90;99.90
48836;DHT22;62581;47.342;7.908;2022-12-20T03:43:58;2.90;99.90
48836;DHT22;62581;47.342;7.908;2022-12-20T03:46:25;2.90;99.90
48836;DHT22;62581;47.342;7.908;2022-12-20T03:48:52;3.00;99.90
48836;DHT22;62581;47.342;7.908;2022-12-20T03:51:19;2.90;99.90
48836;DHT22;62581;47.342;7.908;2022-12-20T03:53:47;2.90;99.90
48836;DHT22;62581;47.342;7.908;2022-12-20T03:56:14;2.90;99.90
48836;DHT22;62581;47.342;7.908;2022-12-20T03:58:41;2.90;99.90
48836;DHT22;62581;47.342;7.908;2022-12-20T04:01:19;2.90;99.90
48836;DHT22;62581;47.342;7.908;2022-12-20T04:03:47;2.90;99.90
48836;DHT22;62581;47.342;7.908;2022-12-20T04:06:14;2.90;99.90
48836;DHT22;62581;47.342;7.908;2022-12-20T04:08:41;2.90;99.90
48836;DHT22;62581;47.342;7.908;2022-12-20T04:11:09;2.80;99.90
48836;DHT22;62581;47.342;7.908;2022-12-20T04:13:42;2.80;99.90
48836;DHT22;62581;47.342;7.908;2022-12-20T04:16:10;2.80;99.90
48836;DHT22;62581;47.342;7.908;2022-12-20T04:18:37;2.80;99.90
48836;DHT22;62581;47.342;7.908;2022-12-20T04:21:05;2.80;99.90
48836;DHT22;62581;47.342;7.908;2022-12-20T04:23:33;2.80;99.90
48836;DHT22;62581;47.342;7.908;2022-12-20T04:26:02;2.80;99.90
48836;DHT22;62581;47.342;7.908;2022-12-20T04:28:31;2.80;99.90
48836;DHT22;62581;47.342;7.908;2022-12-20T04:30:59;2.80;99.90
48836;DHT22;62581;47.342;7.908;2022-12-20T04:33:27;2.80;99.90
48836;DHT22;62581;47.342;7.908;2022-12-20T04:35:54;2.80;99.90
48836;DHT22;62581;47.342;7.908;2022-12-20T04:38:22;2.70;99.90
48836;DHT22;62581;47.342;7.908;2022-12-20T04:40:49;2.80;99.90
48836;DHT22;62581;47.342;7.908;2022-12-20T04:43:17;2.80;99.90
48836;DHT22;62581;47.342;7.908;2022-12-20T04:45:49;2.80;99.90
48836;DHT22;62581;47.342;7.908;2022-12-20T04:48:17;2.80;99.90
48836;DHT22;62581;47.342;7.908;2022-12-20T04:50:47;2.80;99.90
48836;DHT22;62581;47.342;7.908;2022-12-20T04:53:14;2.70;99.90
48836;DHT22;62581;47.342;7.908;2022-12-20T04:55:58;2.70;99.90
48836;DHT22;62581;47.342;7.908;2022-12-20T04:58:25;2.70;99.90
48836;DHT22;62581;47.342;7.908;2022-12-20T05:00:54;2.80;99.90
48836;DHT22;62581;47.342;7.908;2022-12-20T05:03:22;2.80;99.90
48836;DHT22;62581;47.342;7.908;2022-12-20T05:05:49;2.90;99.90
48836;DHT22;62581;47.342;7.908;2022-12-20T05:08:16;2.80;99.90
48836;DHT22;62581;47.342;7.908;2022-12-20T05:10:44;2.70;99.90
48836;DHT22;62581;47.342;7.908;2022-12-20T05:13:11;2.70;99.90
48836;DHT22;62581;47.342;7.908;2022-12-20T05:15:38;2.70;99.90
48836;DHT22;62581;47.342;7.908;2022-12-20T05:18:06;2.70;99.90
48836;DHT22;62581;47.342;7.908;2022-12-20T05:20:33;2.80;99.90
48836;DHT22;62581;47.342;7.908;2022-12-20T05:23:00;2.80;99.90
48836;DHT22;62581;47.342;7.908;2022-12-20T05:25:46;2.80;99.90
48836;DHT22;62581;47.342;7.908;2022-12-20T05:28:30;2.90;99.90
48836;DHT22;62581;47.342;7.908;2022-12-20T05:30:57;2.90;99.90
48836;DHT22;62581;47.342;7.908;2022-12-20T05:33:26;2.90;99.90
48836;DHT22;62581;47.342;7.908;2022-12-20T05:35:53;2.90;99.90
48836;DHT22;62581;47.342;7.908;2022-12-20T05:38:21;2.80;99.90
48836;DHT22;62581;47.342;7.908;2022-12-20T05:40:49;2.80;99.90
48836;DHT22;62581;47.342;7.908;2022-12-20T05:43:17;2.70;99.90
48836;DHT22;62581;47.342;7.908;2022-12-20T05:45:45;2.70;99.90
48836;DHT22;62581;47.342;7.908;2022-12-20T05:48:13;2.60;99.90
48836;DHT22;62581;47.342;7.908;2022-12-20T05:50:42;2.70;99.90
48836;DHT22;62581;47.342;7.908;2022-12-20T05:53:11;2.60;99.90
48836;DHT22;62581;47.342;7.908;2022-12-20T05:55:42;2.60;99.90
48836;DHT22;62581;47.342;7.908;2022-12-20T05:58:10;2.60;99.90
48836;DHT22;62581;47.342;7.908;2022-12-20T06:00:38;2.60;99.90
48836;DHT22;62581;47.342;7.908;2022-12-20T06:03:06;2.60;99.90
48836;DHT22;62581;47.342;7.908;2022-12-20T06:05:36;2.60;99.90
48836;DHT22;62581;47.342;7.908;2022-12-20T06:08:06;2.70;99.90
48836;DHT22;62581;47.342;7.908;2022-12-20T06:10:34;2.70;99.90
48836;DHT22;62581;47.342;7.908;2022-12-20T06:13:02;2.80;99.90
48836;DHT22;62581;47.342;7.908;2022-12-20T06:15:29;2.80;99.90
48836;DHT22;62581;47.342;7.908;2022-12-20T06:17:57;2.90;99.90
48836;DHT22;62581;47.342;7.908;2022-12-20T06:20:24;2.90;99.90
48836;DHT22;62581;47.342;7.908;2022-12-20T06:22:51;2.90;99.90
48836;DHT22;62581;47.342;7.908;2022-12-20T06:25:19;2.90;99.90
48836;DHT22;62581;47.342;7.908;2022-12-20T06:27:47;2.90;99.90
48836;DHT22;62581;47.342;7.908;2022-12-20T06:30:14;3.00;99.90
48836;DHT22;62581;47.342;7.908;2022-12-20T06:32:41;3.10;99.90
48836;DHT22;62581;47.342;7.908;2022-12-20T06:35:11;3.00;99.90
48836;DHT22;62581;47.342;7.908;2022-12-20T06:37:39;3.00;99.90
48836;DHT22;62581;47.342;7.908;2022-12-20T06:40:07;3.00;99.90
48836;DHT22;62581;47.342;7.908;2022-12-20T06:42:36;3.00;99.90
48836;DHT22;62581;47.342;7.908;2022-12-20T06:45:03;3.10;99.90
48836;DHT22;62581;47.342;7.908;2022-12-20T06:47:31;3.10;99.90
48836;DHT22;62581;47.342;7.908;2022-12-20T06:49:57;3.00;99.90
48836;DHT22;62581;47.342;7.908;2022-12-20T06:52:24;2.90;99.90
48836;DHT22;62581;47.342;7.908;2022-12-20T06:54:51;2.80;99.90
48836;DHT22;62581;47.342;7.908;2022-12-20T06:57:18;2.80;99.90
48836;DHT22;62581;47.342;7.908;2022-12-20T06:59:47;2.80;99.90
48836;DHT22;62581;47.342;7.908;2022-12-20T07:02:14;2.90;99.90
48836;DHT22;62581;47.342;7.908;2022-12-20T07:04:41;3.00;99.90
48836;DHT22;62581;47.342;7.908;2022-12-20T07:07:08;3.00;99.90
48836;DHT22;62581;47.342;7.908;2022-12-20T07:09:35;3.00;99.90
48836;DHT22;62581;47.342;7.908;2022-12-20T07:12:02;3.00;99.90
48836;DHT22;62581;47.342;7.908;2022-12-20T07:14:29;3.00;99.90
48836;DHT22;62581;47.342;7.908;2022-12-20T07:16:58;3.10;99.90
48836;DHT22;62581;47.342;7.908;2022-12-20T07:19:25;3.10;99.90
48836;DHT22;62581;47.342;7.908;2022-12-20T07:21:52;3.10;99.90
48836;DHT22;62581;47.342;7.908;2022-12-20T07:24:19;3.10;99.90
48836;DHT22;62581;47.342;7.908;2022-12-20T07:26:46;3.10;99.90
48836;DHT22;62581;47.342;7.908;2022-12-20T07:29:13;3.10;99.90
48836;DHT22;62581;47.342;7.908;2022-12-20T07:31:40;3.10;99.90
48836;DHT22;62581;47.342;7.908;2022-12-20T07:34:09;3.10;99.90
48836;DHT22;62581;47.342;7.908;2022-12-20T07:36:36;3.10;99.90
48836;DHT22;62581;47.342;7.908;2022-12-20T07:39:03;3.10;99.90
48836;DHT22;62581;47.342;7.908;2022-12-20T07:41:30;3.10;99.90
48836;DHT22;62581;47.342;7.908;2022-12-20T07:43:58;3.20;99.90
48836;DHT22;62581;47.342;7.908;2022-12-20T07:46:25;3.20;99.90
48836;DHT22;62581;47.342;7.908;2022-12-20T07:48:52;3.20;99.90
48836;DHT22;62581;47.342;7.908;2022-12-20T07:51:23;3.30;99.90
48836;DHT22;62581;47.342;7.908;2022-12-20T07:53:53;3.30;99.90
48836;DHT22;62581;47.342;7.908;2022-12-20T07:56:20;3.30;99.90
48836;DHT22;62581;47.342;7.908;2022-12-20T07:58:49;3.40;99.90
48836;DHT22;62581;47.342;7.908;2022-12-20T08:01:17;3.40;99.90
48836;DHT22;62581;47.342;7.908;2022-12-20T08:03:49;3.50;99.90
48836;DHT22;62581;47.342;7.908;2022-12-20T08:06:17;3.60;99.90
48836;DHT22;62581;47.342;7.908;2022-12-20T08:08:50;3.60;99.90
48836;DHT22;62581;47.342;7.908;2022-12-20T08:11:20;3.70;99.90
48836;DHT22;62581;47.342;7.908;2022-12-20T08:13:50;3.70;99.90
48836;DHT22;62581;47.342;7.908;2022-12-20T08:16:17;3.80;99.90
48836;DHT22;62581;47.342;7.908;2022-12-20T08:18:44;3.80;99.90
48836;DHT22;62581;47.342;7.908;2022-12-20T08:21:11;3.80;99.90
48836;DHT22;62581;47.342;7.908;2022-12-20T08:23:39;3.90;99.90
48836;DHT22;62581;47.342;7.908;2022-12-20T08:26:07;4.00;99.90
48836;DHT22;62581;47.342;7.908;2022-12-20T08:28:35;4.10;99.90
48836;DHT22;62581;47.342;7.908;2022-12-20T08:31:03;4.20;99.90
48836;DHT22;62581;47.342;7.908;2022-12-20T08:33:31;4.20;99.90
48836;DHT22;62581;47.342;7.908;2022-12-20T08:36:00;4.30;99.90
48836;DHT22;62581;47.342;7.908;2022-12-20T08:38:28;4.30;99.90
48836;DHT22;62581;47.342;7.908;2022-12-20T08:41:01;4.30;99.90
48836;DHT22;62581;47.342;7.908;2022-12-20T08:43:30;4.30;99.90
48836;DHT22;62581;47.342;7.908;2022-12-20T08:45:57;4.40;99.90
48836;DHT22;62581;47.342;7.908;2022-12-20T08:48:24;4.40;99.90
48836;DHT22;62581;47.342;7.908;2022-12-20T08:50:54;4.40;99.90
48836;DHT22;62581;47.342;7.908;2022-12-20T08:53:22;4.40;99.90
48836;DHT22;62581;47.342;7.908;2022-12-20T08:55:49;4.50;99.90
48836;DHT22;62581;47.342;7.908;2022-12-20T08:58:16;4.50;99.90
48836;DHT22;62581;47.342;7.908;2022-12-20T09:00:45;4.50;99.90
48836;DHT22;62581;47.342;7.908;2022-12-20T09:03:12;4.50;99.90
48836;DHT22;62581;47.342;7.908;2022-12-20T09:05:44;4.60;99.90
48836;DHT22;62581;47.342;7.908;2022-12-20T09:08:11;4.60;99.90
48836;DHT22;62581;47.342;7.908;2022-12-20T09:10:38;4.70;99.90
48836;DHT22;62581;47.342;7.908;2022-12-20T09:13:06;4.80;99.90
48836;DHT22;62581;47.342;7.908;2022-12-20T09:15:35;4.90;99.90
48836;DHT22;62581;47.342;7.908;2022-12-20T09:18:04;4.90;99.90
48836;DHT22;62581;47.342;7.908;2022-12-20T09:20:31;4.90;99.90
48836;DHT22;62581;47.342;7.908;2022-12-20T09:22:59;4.90;99.90
48836;DHT22;62581;47.342;7.908;2022-12-20T09:25:26;4.90;99.90
48836;DHT22;62581;47.342;7.908;2022-12-20T09:27:54;4.90;99.90
48836;DHT22;62581;47.342;7.908;2022-12-20T09:30:22;5.00;99.90
48836;DHT22;62581;47.342;7.908;2022-12-20T09:32:49;4.90;99.90
48836;DHT22;62581;47.342;7.908;2022-12-20T09:35:17;4.80;99.90
48836;DHT22;62581;47.342;7.908;2022-12-20T09:37:45;4.80;99.90
48836;DHT22;62581;47.342;7.908;2022-12-20T09:40:16;4.80;99.90
48836;DHT22;62581;47.342;7.908;2022-12-20T09:42:46;4.90;99.90
48836;DHT22;62581;47.342;7.908;2022-12-20T09:45:20;5.00;99.90
48836;DHT22;62581;47.342;7.908;2022-12-20T09:47:49;5.00;99.90
48836;DHT22;62581;47.342;7.908;2022-12-20T09:50:19;4.90;99.90
48836;DHT22;62581;47.342;7.908;2022-12-20T09:52:58;4.90;99.90
48836;DHT22;62581;47.342;7.908;2022-12-20T09:55:33;4.90;99.90
48836;DHT22;62581;47.342;7.908;2022-12-20T09:58:22;5.00;99.90
48836;DHT22;62581;47.342;7.908;2022-12-20T10:00:53;5.00;99.90
48836;DHT22;62581;47.342;7.908;2022-12-20T10:03:22;5.00;99.90
48836;DHT22;62581;47.342;7.908;2022-12-20T10:05:53;5.20;99.90
48836;DHT22;62581;47.342;7.908;2022-12-20T10:08:38;5.20;99.90
48836;DHT22;62581;47.342;7.908;2022-12-20T10:11:11;5.30;99.90
48836;DHT22;62581;47.342;7.908;2022-12-20T10:13:53;5.40;99.90
48836;DHT22;62581;47.342;7.908;2022-12-20T10:16:34;5.40;99.90
48836;DHT22;62581;47.342;7.908;2022-12-20T10:19:13;5.50;99.90
48836;DHT22;62581;47.342;7.908;2022-12-20T10:21:48;5.60;99.90
48836;DHT22;62581;47.342;7.908;2022-12-20T10:24:20;5.80;99.90
48836;DHT22;62581;47.342;7.908;2022-12-20T10:26:50;5.90;99.90
48836;DHT22;62581;47.342;7.908;2022-12-20T10:29:18;6.10;99.90
48836;DHT22;62581;47.342;7.908;2022-12-20T10:31:48;6.30;99.90
48836;DHT22;62581;47.342;7.908;2022-12-20T10:34:15;6.50;99.90
48836;DHT22;62581;47.342;7.908;2022-12-20T10:36:43;6.60;99.90
48836;DHT22;62581;47.342;7.908;2022-12-20T10:39:10;6.70;99.90
48836;DHT22;62581;47.342;7.908;2022-12-20T10:41:47;6.80;99.90
48836;DHT22;62581;47.342;7.908;2022-12-20T10:44:17;6.90;99.90
48836;DHT22;62581;47.342;7.908;2022-12-20T10:46:48;7.00;99.90
48836;DHT22;62581;47.342;7.908;2022-12-20T10:49:32;7.10;99.90
48836;DHT22;62581;47.342;7.908;2022-12-20T10:52:02;7.20;99.90
48836;DHT22;62581;47.342;7.908;2022-12-20T10:54:32;7.20;99.90
48836;DHT22;62581;47.342;7.908;2022-12-20T10:57:02;7.30;99.90
48836;DHT22;62581;47.342;7.908;2022-12-20T10:59:32;7.30;99.90
48836;DHT22;62581;47.342;7.908;2022-12-20T11:02:02;7.40;99.90
48836;DHT22;62581;47.342;7.908;2022-12-20T11:04:29;7.40;99.90
48836;DHT22;62581;47.342;7.908;2022-12-20T11:06:57;7.50;99.90
48836;DHT22;62581;47.342;7.908;2022-12-20T11:09:29;7.50;99.90
48836;DHT22;62581;47.342;7.908;2022-12-20T11:11:58;7.60;99.90
48836;DHT22;62581;47.342;7.908;2022-12-20T11:14:25;7.60;99.90
48836;DHT22;62581;47.342;7.908;2022-12-20T11:16:53;7.70;99.90
48836;DHT22;62581;47.342;7.908;2022-12-20T11:19:46;7.70;99.90
48836;DHT22;62581;47.342;7.908;2022-12-20T11:22:26;7.70;99.90
48836;DHT22;62581;47.342;7.908;2022-12-20T11:25:09;7.70;99.90
48836;DHT22;62581;47.342;7.908;2022-12-20T11:27:48;7.70;99.90
48836;DHT22;62581;47.342;7.908;2022-12-20T11:30:20;7.70;99.90
48836;DHT22;62581;47.342;7.908;2022-12-20T11:35:52;7.40;99.90
48836;DHT22;62581;47.342;7.908;2022-12-20T11:38:29;7.10;99.90
48836;DHT22;62581;47.342;7.908;2022-12-20T11:41:10;7.00;99.90
48836;DHT22;62581;47.342;7.908;2022-12-20T11:43:53;7.20;99.90
48836;DHT22;62581;47.342;7.908;2022-12-20T11:46:31;7.50;99.90
48836;DHT22;62581;47.342;7.908;2022-12-20T11:49:12;7.90;99.90
48836;DHT22;62581;47.342;7.908;2022-12-20T11:51:45;8.30;99.90
48836;DHT22;62581;47.342;7.908;2022-12-20T11:54:18;8.70;99.90
48836;DHT22;62581;47.342;7.908;2022-12-20T11:56:51;8.90;99.90
48836;DHT22;62581;47.342;7.908;2022-12-20T11:59:30;9.20;99.90
48836;DHT22;62581;47.342;7.908;2022-12-20T12:02:08;9.40;99.90
48836;DHT22;62581;47.342;7.908;2022-12-20T12:04:40;9.60;99.90
48836;DHT22;62581;47.342;7.908;2022-12-20T12:07:12;9.80;99.90
48836;DHT22;62581;47.342;7.908;2022-12-20T12:09:48;10.10;99.90
48836;DHT22;62581;47.342;7.908;2022-12-20T12:12:24;10.50;99.90
48836;DHT22;62581;47.342;7.908;2022-12-20T12:14:58;10.80;99.90
48836;DHT22;62581;47.342;7.908;2022-12-20T12:17:31;11.00;99.90
48836;DHT22;62581;47.342;7.908;2022-12-20T12:20:16;11.30;99.90
48836;DHT22;62581;47.342;7.908;2022-12-20T12:22:48;11.60;99.90
48836;DHT22;62581;47.342;7.908;2022-12-20T12:25:17;12.00;99.90
48836;DHT22;62581;47.342;7.908;2022-12-20T12:27:48;12.30;99.90
48836;DHT22;62581;47.342;7.908;2022-12-20T12:30:16;12.50;99.90
48836;DHT22;62581;47.342;7.908;2022-12-20T12:32:47;12.80;99.90
48836;DHT22;62581;47.342;7.908;2022-12-20T12:35:37;12.90;99.90
48836;DHT22;62581;47.342;7.908;2022-12-20T12:44:29;13.10;99.90
48836;DHT22;62581;47.342;7.908;2022-12-20T12:47:01;13.10;99.90
48836;DHT22;62581;47.342;7.908;2022-12-20T12:49:31;13.10;99.90
48836;DHT22;62581;47.342;7.908;2022-12-20T12:52:02;12.80;99.90
48836;DHT22;62581;47.342;7.908;2022-12-20T12:54:36;12.60;99.90
48836;DHT22;62581;47.342;7.908;2022-12-20T12:57:09;12.40;99.90
48836;DHT22;62581;47.342;7.908;2022-12-20T12:59:44;12.10;99.90
48836;DHT22;62581;47.342;7.908;2022-12-20T13:02:31;11.70;99.90
48836;DHT22;62581;47.342;7.908;2022-12-20T13:05:00;11.70;99.90
48836;DHT22;62581;47.342;7.908;2022-12-20T13:07:46;11.70;99.90
48836;DHT22;62581;47.342;7.908;2022-12-20T13:13:23;11.10;99.90
48836;DHT22;62581;47.342;7.908;2022-12-20T13:16:28;11.10;99.90
48836;DHT22;62581;47.342;7.908;2022-12-20T13:19:03;11.10;99.90
48836;DHT22;62581;47.342;7.908;2022-12-20T13:21:38;10.90;99.90
48836;DHT22;62581;47.342;7.908;2022-12-20T13:35:58;11.20;99.90
48836;DHT22;62581;47.342;7.908;2022-12-20T13:38:39;11.70;99.90
48836;DHT22;62581;47.342;7.908;2022-12-20T13:41:24;12.30;99.90
48836;DHT22;62581;47.342;7.908;2022-12-20T13:43:52;12.50;99.90
48836;DHT22;62581;47.342;7.908;2022-12-20T13:46:25;12.60;99.90
48836;DHT22;62581;47.342;7.908;2022-12-20T13:48:56;12.70;99.90
48836;DHT22;62581;47.342;7.908;2022-12-20T13:51:26;12.90;99.90
48836;DHT22;62581;47.342;7.908;2022-12-20T13:53:55;12.90;99.90
48836;DHT22;62581;47.342;7.908;2022-12-20T13:56:45;12.80;99.90
48836;DHT22;62581;47.342;7.908;2022-12-20T13:59:14;12.70;99.90
48836;DHT22;62581;47.342;7.908;2022-12-20T14:01:49;12.70;99.90
48836;DHT22;62581;47.342;7.908;2022-12-20T14:04:19;12.70;99.90
48836;DHT22;62581;47.342;7.908;2022-12-20T14:06:50;12.60;99.90
48836;DHT22;62581;47.342;7.908;2022-12-20T14:09:30;12.50;99.90
48836;DHT22;62581;47.342;7.908;2022-12-20T14:12:12;12.20;99.90
48836;DHT22;62581;47.342;7.908;2022-12-20T14:14:43;12.20;99.90
48836;DHT22;62581;47.342;7.908;2022-12-20T14:17:18;12.10;99.90
48836;DHT22;62581;47.342;7.908;2022-12-20T14:20:03;12.30;99.90
48836;DHT22;62581;47.342;7.908;2022-12-20T14:22:31;12.40;99.90
48836;DHT22;62581;47.342;7.908;2022-12-20T14:24:59;12.50;99.90
48836;DHT22;62581;47.342;7.908;2022-12-20T14:27:29;12.70;99.90
48836;DHT22;62581;47.342;7.908;2022-12-20T14:29:58;12.60;99.90
48836;DHT22;62581;47.342;7.908;2022-12-20T14:32:26;12.30;99.90
48836;DHT22;62581;47.342;7.908;2022-12-20T14:34:53;12.00;99.90
48836;DHT22;62581;47.342;7.908;2022-12-20T14:37:31;11.80;99.90
48836;DHT22;62581;47.342;7.908;2022-12-20T14:40:02;11.50;99.90
48836;DHT22;62581;47.342;7.908;2022-12-20T14:42:33;11.20;99.90
48836;DHT22;62581;47.342;7.908;2022-12-20T14:45:14;11.00;99.90
48836;DHT22;62581;47.342;7.908;2022-12-20T14:47:48;10.90;99.90
48836;DHT22;62581;47.342;7.908;2022-12-20T14:50:18;10.70;99.90
48836;DHT22;62581;47.342;7.908;2022-12-20T14:52:47;10.60;99.90
48836;DHT22;62581;47.342;7.908;2022-12-20T14:55:16;10.50;99.90
48836;DHT22;62581;47.342;7.908;2022-12-20T14:57:45;10.40;99.90
48836;DHT22;62581;47.342;7.908;2022-12-20T15:00:20;10.30;99.90
48836;DHT22;62581;47.342;7.908;2022-12-20T15:02:51;10.20;99.90
48836;DHT22;62581;47.342;7.908;2022-12-20T15:05:51;10.20;99.90
48836;DHT22;62581;47.342;7.908;2022-12-20T15:08:25;10.10;99.90
48836;DHT22;62581;47.342;7.908;2022-12-20T15:10:55;9.90;99.90
48836;DHT22;62581;47.342;7.908;2022-12-20T15:13:27;9.80;99.90
48836;DHT22;62581;47.342;7.908;2022-12-20T15:15:56;9.70;99.90
48836;DHT22;62581;47.342;7.908;2022-12-20T15:18:23;9.70;99.90
48836;DHT22;62581;47.342;7.908;2022-12-20T15:20:59;9.60;99.90
48836;DHT22;62581;47.342;7.908;2022-12-20T15:23:28;9.60;99.90
48836;DHT22;62581;47.342;7.908;2022-12-20T15:25:55;9.50;99.90
48836;DHT22;62581;47.342;7.908;2022-12-20T15:28:25;9.60;99.90
48836;DHT22;62581;47.342;7.908;2022-12-20T15:30:53;9.60;99.90
48836;DHT22;62581;47.342;7.908;2022-12-20T15:33:22;9.60;99.90
48836;DHT22;62581;47.342;7.908;2022-12-20T15:35:49;9.70;99.90
48836;DHT22;62581;47.342;7.908;2022-12-20T15:38:18;9.70;99.90
48836;DHT22;62581;47.342;7.908;2022-12-20T15:40:50;9.60;99.90
48836;DHT22;62581;47.342;7.908;2022-12-20T15:43:20;9.60;99.90
48836;DHT22;62581;47.342;7.908;2022-12-20T15:45:50;9.70;99.90
48836;DHT22;62581;47.342;7.908;2022-12-20T15:48:19;9.60;99.90
48836;DHT22;62581;47.342;7.908;2022-12-20T15:50:52;9.60;99.90
48836;DHT22;62581;47.342;7.908;2022-12-20T15:53:23;9.60;99.90
48836;DHT22;62581;47.342;7.908;2022-12-20T15:55:54;9.50;99.90
48836;DHT22;62581;47.342;7.908;2022-12-20T15:58:22;9.50;99.90
48836;DHT22;62581;47.342;7.908;2022-12-20T16:00:50;9.50;99.90
48836;DHT22;62581;47.342;7.908;2022-12-20T16:03:20;9.40;99.90
48836;DHT22;62581;47.342;7.908;2022-12-20T16:05:48;9.30;99.90
48836;DHT22;62581;47.342;7.908;2022-12-20T16:08:17;9.30;99.90
48836;DHT22;62581;47.342;7.908;2022-12-20T16:10:44;9.30;99.90
48836;DHT22;62581;47.342;7.908;2022-12-20T16:13:15;9.20;99.90
48836;DHT22;62581;47.342;7.908;2022-12-20T16:15:43;9.20;99.90
48836;DHT22;62581;47.342;7.908;2022-12-20T16:18:10;9.10;99.90
48836;DHT22;62581;47.342;7.908;2022-12-20T16:20:38;9.10;99.90
48836;DHT22;62581;47.342;7.908;2022-12-20T16:23:08;9.10;99.90
48836;DHT22;62581;47.342;7.908;2022-12-20T16:25:40;9.10;99.90
48836;DHT22;62581;47.342;7.908;2022-12-20T16:28:07;9.00;99.90
48836;DHT22;62581;47.342;7.908;2022-12-20T16:30:35;8.90;99.90